sensor_id;sensor_type;location;lat;lon;timestamp;pressure;altitude;pressure_sealevel;temperature;humidity
7586;BME280;12459;42.646;23.292;2023-04-21T00:04:36;93176.78;;;11.96;76.51
7586;BME280;12459;42.646;23.292;2023-04-21T00:19:39;93111.75;;;11.72;75.73
7586;BME280;12459;42.646;23.292;2023-04-21T00:34:41;93242.47;;;12.40;75.05
7586;BME280;12459;42.646;23.292;2023-04-21T00:49:43;93308.28;;;12.81;74.92
7586;BME280;12459;42.646;23.292;2023-04-21T01:04:44;93340.88;;;12.66;76.31
7586;BME280;12459;42.646;23.292;2023-04-21T01:19:46;93190.59;;;11.62;76.97
7586;BME280;12459;42.646;23.292;2023-04-21T01:34:49;93134.03;;;11.20;76.93
7586;BME280;12459;42.646;23.292;2023-04-21T01:49:51;93262.97;;;12.50;76.59
7586;BME280;12459;42.646;23.292;2023-04-21T02:04:53;93077.38;;;11.02;76.52
7586;BME280;12459;42.646;23.292;2023-04-21T02:19:54;93180.91;;;11.84;76.50
7586;BME280;12459;42.646;23.292;2023-04-21T02:34:56;93158.66;;;11.67;78.15
7586;BME280;12459;42.646;23.292;2023-04-21T02:49:58;93096.81;;;11.22;79.22
7586;BME280;12459;42.646;23.292;2023-04-21T03:05:00;93246.41;;;12.35;79.48
7586;BME280;12459;42.646;23.292;2023-04-21T03:20:01;93199.59;;;12.04;79.39
7586;BME280;12459;42.646;23.292;2023-04-21T03:35:06;93060.47;;;11.21;77.63
7586;BME280;12459;42.646;23.292;2023-04-21T03:50:08;93099.94;;;11.37;77.44
7586;BME280;12459;42.646;23.292;2023-04-21T04:05:10;93063.84;;;10.73;77.94
7586;BME280;12459;42.646;23.292;2023-04-21T04:20:11;93242.50;;;12.07;78.04
7586;BME280;12459;42.646;23.292;2023-04-21T04:35:13;93300.59;;;12.50;78.12
7586;BME280;12459;42.646;23.292;2023-04-21T04:50:16;93338.53;;;12.68;79.25
7586;BME280;12459;42.646;23.292;2023-04-21T05:05:18;93165.78;;;11.58;79.33
7586;BME280;12459;42.646;23.292;2023-04-21T05:20:20;93348.09;;;12.86;80.13
7586;BME280;12459;42.646;23.292;2023-04-21T05:35:23;93224.34;;;12.28;79.38
7586;BME280;12459;42.646;23.292;2023-04-21T05:50:25;93171.91;;;12.07;80.15
7586;BME280;12459;42.646;23.292;2023-04-21T06:05:28;93279.34;;;12.85;80.17
7586;BME280;12459;42.646;23.292;2023-04-21T06:20:31;93250.59;;;13.39;79.69
7586;BME280;12459;42.646;23.292;2023-04-21T06:35:32;93130.72;;;13.09;77.35
7586;BME280;12459;42.646;23.292;2023-04-21T06:50:34;93104.81;;;13.28;76.04
7586;BME280;12459;42.646;23.292;2023-04-21T07:05:36;93183.69;;;14.01;75.61
7586;BME280;12459;42.646;23.292;2023-04-21T07:20:37;93243.09;;;14.71;74.25
7586;BME280;12459;42.646;23.292;2023-04-21T07:35:39;93139.56;;;14.55;74.18
7586;BME280;12459;42.646;23.292;2023-04-21T07:50:41;93223.59;;;14.88;70.85
7586;BME280;12459;42.646;23.292;2023-04-21T08:05:43;93319.19;;;16.18;70.76
7586;BME280;12459;42.646;23.292;2023-04-21T08:20:45;93122.34;;;15.37;69.60
7586;BME280;12459;42.646;23.292;2023-04-21T10:49:23;93253.13;;;16.96;68.46
7586;BME280;12459;42.646;23.292;2023-04-21T11:04:25;93186.91;;;16.42;66.40
7586;BME280;12459;42.646;23.292;2023-04-21T11:19:30;93006.28;;;15.55;66.86
7586;BME280;12459;42.646;23.292;2023-04-21T11:34:32;93257.31;;;17.15;63.73
7586;BME280;12459;42.646;23.292;2023-04-21T12:05:03;93127.78;;;15.77;62.19
7586;BME280;12459;42.646;23.292;2023-04-21T12:20:06;93184.50;;;16.44;61.46
7586;BME280;12459;42.646;23.292;2023-04-21T12:35:09;93187.66;;;16.61;61.29
7586;BME280;12459;42.646;23.292;2023-04-21T12:50:10;93241.09;;;16.97;59.87
7586;BME280;12459;42.646;23.292;2023-04-21T13:05:13;92931.22;;;15.13;60.99
7586;BME280;12459;42.646;23.292;2023-04-21T13:20:15;93150.00;;;17.36;59.77
7586;BME280;12459;42.646;23.292;2023-04-21T13:35:19;93228.72;;;17.93;57.67
7586;BME280;12459;42.646;23.292;2023-04-21T13:50:21;93151.13;;;17.72;55.42
7586;BME280;12459;42.646;23.292;2023-04-21T14:05:24;93085.00;;;16.94;57.10
7586;BME280;12459;42.646;23.292;2023-04-21T14:20:26;93017.44;;;16.30;56.80
7586;BME280;12459;42.646;23.292;2023-04-21T14:35:28;93180.31;;;17.59;56.03
7586;BME280;12459;42.646;23.292;2023-04-21T14:50:29;93157.81;;;17.43;56.77
7586;BME280;12459;42.646;23.292;2023-04-21T15:05:31;92622.28;;;13.71;57.77
7586;BME280;12459;42.646;23.292;2023-04-21T15:20:35;93143.50;;;16.82;59.96
7586;BME280;12459;42.646;23.292;2023-04-21T15:35:46;93030.97;;;15.84;59.87
7586;BME280;12459;42.646;23.292;2023-04-21T15:50:49;92966.03;;;15.20;58.49
7586;BME280;12459;42.646;23.292;2023-04-21T16:05:50;92870.56;;;14.59;56.93
7586;BME280;12459;42.646;23.292;2023-04-21T16:20:52;93076.50;;;15.55;58.55
7586;BME280;12459;42.646;23.292;2023-04-21T16:35:54;93054.19;;;15.14;60.37
7586;BME280;12459;42.646;23.292;2023-04-21T16:50:58;93130.72;;;15.60;61.21
7586;BME280;12459;42.646;23.292;2023-04-21T17:05:59;93092.91;;;14.89;65.70
7586;BME280;12459;42.646;23.292;2023-04-21T17:21:02;93260.63;;;15.31;66.38
7586;BME280;12459;42.646;23.292;2023-04-21T17:36:06;93236.63;;;14.68;70.02
7586;BME280;12459;42.646;23.292;2023-04-21T17:51:08;93295.44;;;14.60;72.08
7586;BME280;12459;42.646;23.292;2023-04-21T18:06:11;93143.91;;;13.33;71.69
7586;BME280;12459;42.646;23.292;2023-04-21T18:21:16;93130.81;;;12.81;72.94
7586;BME280;12459;42.646;23.292;2023-04-21T18:36:18;93124.31;;;12.65;73.06
7586;BME280;12459;42.646;23.292;2023-04-21T18:51:19;93240.47;;;13.43;72.58
7586;BME280;12459;42.646;23.292;2023-04-21T19:06:21;93215.25;;;12.83;72.77
7586;BME280;12459;42.646;23.292;2023-04-21T19:21:23;93073.91;;;11.99;72.95
7586;BME280;12459;42.646;23.292;2023-04-21T19:36:25;93291.94;;;13.46;72.30
7586;BME280;12459;42.646;23.292;2023-04-21T19:51:27;93216.91;;;12.48;74.93
7586;BME280;12459;42.646;23.292;2023-04-21T20:06:29;93244.56;;;12.49;74.58
7586;BME280;12459;42.646;23.292;2023-04-21T20:21:30;93221.63;;;12.44;75.07
7586;BME280;12459;42.646;23.292;2023-04-21T20:36:33;93300.56;;;12.18;80.80
7586;BME280;12459;42.646;23.292;2023-04-21T20:51:40;93063.34;;;10.22;82.31
7586;BME280;12459;42.646;23.292;2023-04-21T21:06:42;93218.72;;;11.37;82.26
7586;BME280;12459;42.646;23.292;2023-04-21T21:21:44;93366.41;;;11.90;83.28
7586;BME280;12459;42.646;23.292;2023-04-21T21:36:46;93439.66;;;12.10;85.80
7586;BME280;12459;42.646;23.292;2023-04-21T21:51:47;93381.16;;;12.18;86.17
7586;BME280;12459;42.646;23.292;2023-04-21T22:06:50;93377.50;;;11.92;86.21
7586;BME280;12459;42.646;23.292;2023-04-21T22:21:52;93363.44;;;11.05;89.51
7586;BME280;12459;42.646;23.292;2023-04-21T22:36:53;93414.41;;;11.25;91.51
7586;BME280;12459;42.646;23.292;2023-04-21T22:51:55;93413.44;;;11.15;89.25
7586;BME280;12459;42.646;23.292;2023-04-21T23:06:57;93274.16;;;10.18;90.67
7586;BME280;12459;42.646;23.292;2023-04-21T23:21:59;93269.94;;;10.20;91.86
7586;BME280;12459;42.646;23.292;2023-04-21T23:37:01;93321.53;;;10.48;89.35
7586;BME280;12459;42.646;23.292;2023-04-21T23:52:02;93395.63;;;11.25;87.46
